createdAt,value
2022-10-13T00:00:49.223Z,9.20
2022-10-13T00:03:37.819Z,9.14
2022-10-13T00:06:11.412Z,9.18
2022-10-13T00:08:46.813Z,9.22
2022-10-13T00:11:20.846Z,9.18
2022-10-13T00:13:56.962Z,9.20
2022-10-13T00:16:30.648Z,9.14
2022-10-13T00:19:03.233Z,9.13
2022-10-13T00:21:35.530Z,9.09
2022-10-13T00:24:11.083Z,9.08
2022-10-13T00:26:44.004Z,9.04
2022-10-13T00:29:16.818Z,9.00
2022-10-13T00:31:48.487Z,9.03
2022-10-13T00:34:20.087Z,8.96
2022-10-13T00:36:51.748Z,8.95
2022-10-13T00:39:23.785Z,8.95
2022-10-13T00:41:58.650Z,8.89
2022-10-13T00:44:59.726Z,8.86
2022-10-13T00:47:35.778Z,8.83
2022-10-13T00:50:13.059Z,8.83
2022-10-13T00:52:45.932Z,8.87
2022-10-13T00:55:21.783Z,8.84
2022-10-13T00:57:56.109Z,8.72
2022-10-13T01:00:35.866Z,8.70
2022-10-13T01:03:07.896Z,8.62
2022-10-13T01:05:41.800Z,8.66
2022-10-13T01:08:15.080Z,8.65
2022-10-13T01:10:59.940Z,8.66
2022-10-13T01:13:41.849Z,8.66
2022-10-13T01:16:19.118Z,8.60
2022-10-13T01:18:59.307Z,8.60
2022-10-13T01:21:42.793Z,8.62
2022-10-13T01:24:48.142Z,8.59
2022-10-13T01:27:52.860Z,8.58
2022-10-13T01:30:25.421Z,8.61
2022-10-13T01:33:11.390Z,8.59
2022-10-13T01:35:57.929Z,8.58
2022-10-13T01:38:40.477Z,8.55
2022-10-13T01:41:20.466Z,8.54
2022-10-13T01:43:56.545Z,8.57
2022-10-13T01:46:32.170Z,8.49
2022-10-13T01:49:10.583Z,8.54
2022-10-13T01:51:44.634Z,8.52
2022-10-13T01:54:17.186Z,8.44
2022-10-13T01:56:57.173Z,8.25
2022-10-13T01:59:36.174Z,8.33
2022-10-13T02:02:18.341Z,8.33
2022-10-13T02:04:58.558Z,8.28
2022-10-13T02:07:37.488Z,8.27
2022-10-13T02:10:15.713Z,8.24
2022-10-13T02:12:54.562Z,8.37
2022-10-13T02:15:31.414Z,8.32
2022-10-13T02:18:07.896Z,8.41
2022-10-13T02:20:41.400Z,8.35
2022-10-13T02:23:16.641Z,8.34
2022-10-13T02:25:51.696Z,8.36
2022-10-13T02:28:25.246Z,8.39
2022-10-13T02:30:58.009Z,8.28
2022-10-13T02:33:30.604Z,8.32
2022-10-13T02:36:03.317Z,8.30
2022-10-13T02:38:35.750Z,8.26
2022-10-13T02:41:08.857Z,8.26
2022-10-13T02:43:40.922Z,8.24
2022-10-13T02:46:13.197Z,8.22
2022-10-13T02:48:46.414Z,8.10
2022-10-13T02:51:18.668Z,8.10
2022-10-13T02:53:51.025Z,8.13
2022-10-13T02:56:23.147Z,8.14
2022-10-13T02:58:54.829Z,8.02
2022-10-13T03:01:27.122Z,8.03
2022-10-13T03:04:00.678Z,8.01
2022-10-13T03:06:32.463Z,7.96
2022-10-13T03:09:04.777Z,7.97
2022-10-13T03:11:36.570Z,7.98
2022-10-13T03:14:09.884Z,7.98
2022-10-13T03:16:42.443Z,7.94
2022-10-13T03:19:15.305Z,7.91
2022-10-13T03:21:47.498Z,8.00
2022-10-13T03:24:19.857Z,8.01
2022-10-13T03:26:54.536Z,8.04
2022-10-13T03:29:27.024Z,8.04
2022-10-13T03:31:59.639Z,8.00
2022-10-13T03:34:31.544Z,7.92
2022-10-13T03:37:04.849Z,7.93
2022-10-13T03:39:39.900Z,7.91
2022-10-13T03:42:13.917Z,7.90
2022-10-13T03:44:46.134Z,7.88
2022-10-13T03:47:17.785Z,7.87
2022-10-13T03:49:49.452Z,7.84
2022-10-13T03:52:22.178Z,7.85
2022-10-13T03:54:54.785Z,7.76
2022-10-13T03:57:27.229Z,7.79
2022-10-13T03:59:59.163Z,7.83
2022-10-13T04:02:30.082Z,7.82
2022-10-13T04:05:03.083Z,7.84
2022-10-13T04:07:34.804Z,7.77
2022-10-13T04:10:12.146Z,7.65
2022-10-13T04:12:45.154Z,7.73
2022-10-13T04:15:17.694Z,7.60
2022-10-13T04:17:50.943Z,7.49
2022-10-13T04:20:24.211Z,7.50
2022-10-13T04:22:58.238Z,7.47
2022-10-13T04:25:29.928Z,7.39
2022-10-13T04:28:01.560Z,7.47
2022-10-13T04:30:35.995Z,7.45
2022-10-13T04:33:08.174Z,7.27
2022-10-13T04:35:43.938Z,7.23
2022-10-13T04:38:16.334Z,7.21
2022-10-13T04:40:50.341Z,7.24
2022-10-13T04:43:23.320Z,7.27
2022-10-13T04:46:00.877Z,7.26
2022-10-13T04:48:33.318Z,7.28
2022-10-13T04:51:08.091Z,7.27
2022-10-13T04:53:40.801Z,7.19
2022-10-13T04:56:17.329Z,7.34
2022-10-13T04:58:50.716Z,7.32
2022-10-13T05:01:25.390Z,7.33
2022-10-13T05:03:59.028Z,7.27
2022-10-13T05:06:32.890Z,7.35
2022-10-13T05:09:05.630Z,7.34
2022-10-13T05:11:36.584Z,7.37
2022-10-13T05:14:08.405Z,7.36
2022-10-13T05:16:40.089Z,7.26
2022-10-13T05:19:12.153Z,7.21
2022-10-13T05:21:46.107Z,7.29
2022-10-13T05:24:17.898Z,7.28
2022-10-13T05:26:52.345Z,7.28
2022-10-13T05:29:24.294Z,7.37
2022-10-13T05:31:56.249Z,7.31
2022-10-13T05:34:27.950Z,7.31
2022-10-13T05:37:00.509Z,7.34
2022-10-13T05:39:32.929Z,7.33
2022-10-13T05:42:04.745Z,7.37
2022-10-13T05:44:39.691Z,7.35
2022-10-13T05:47:11.981Z,7.36
2022-10-13T05:49:44.063Z,7.35
2022-10-13T05:52:15.943Z,7.33
2022-10-13T05:54:53.373Z,7.37
2022-10-13T05:57:32.189Z,7.40
2022-10-13T06:00:09.091Z,7.40
2022-10-13T06:02:47.880Z,7.45
2022-10-13T06:05:22.824Z,7.43
2022-10-13T06:07:58.149Z,7.44
2022-10-13T06:10:30.149Z,7.50
2022-10-13T06:13:02.965Z,7.60
2022-10-13T06:15:34.732Z,7.64
2022-10-13T06:18:11.466Z,7.58
2022-10-13T06:20:43.944Z,7.68
2022-10-13T06:23:18.698Z,7.76
2022-10-13T06:25:52.157Z,7.79
2022-10-13T06:28:24.246Z,7.74
2022-10-13T06:30:57.239Z,7.77
2022-10-13T06:33:29.009Z,7.79
2022-10-13T06:36:04.062Z,7.92
2022-10-13T06:38:35.988Z,8.02
2022-10-13T06:41:08.500Z,8.11
2022-10-13T06:43:41.709Z,8.20
2022-10-13T06:46:15.967Z,8.24
2022-10-13T06:48:49.764Z,8.28
2022-10-13T06:51:21.813Z,8.42
2022-10-13T06:53:56.369Z,8.45
2022-10-13T06:56:31.808Z,8.49
2022-10-13T06:59:03.806Z,8.55
2022-10-13T07:01:41.353Z,8.63
2022-10-13T07:04:18.083Z,8.67
2022-10-13T07:06:50.888Z,8.79
2022-10-13T07:09:21.308Z,8.92
2022-10-13T07:11:53.654Z,9.00
2022-10-13T07:14:25.660Z,9.02
2022-10-13T07:16:58.270Z,9.15
2022-10-13T07:19:30.272Z,9.24
2022-10-13T07:22:02.228Z,9.28
2022-10-13T07:24:34.279Z,9.37
2022-10-13T07:27:19.123Z,9.45
2022-10-13T07:29:51.226Z,9.54
2022-10-13T07:32:23.406Z,9.54
2022-10-13T07:34:56.379Z,9.61
2022-10-13T07:37:28.926Z,9.69
2022-10-13T07:40:01.136Z,9.76
2022-10-13T07:42:34.172Z,9.78
2022-10-13T07:45:06.828Z,9.80
2022-10-13T07:47:38.628Z,9.88
2022-10-13T07:50:11.855Z,9.97
2022-10-13T07:52:44.255Z,9.98
2022-10-13T07:55:17.994Z,10.05
2022-10-13T07:57:50.245Z,10.14
2022-10-13T08:00:22.305Z,10.22
2022-10-13T08:02:54.501Z,10.29
2022-10-13T08:05:26.464Z,10.36
2022-10-13T08:07:58.760Z,10.44
2022-10-13T08:10:31.159Z,10.53
2022-10-13T08:13:03.204Z,10.56
2022-10-13T08:15:34.875Z,10.62
2022-10-13T08:18:07.077Z,10.72
2022-10-13T08:20:43.910Z,10.84
2022-10-13T08:23:16.801Z,10.92
2022-10-13T08:30:29.217Z,11.15
2022-10-13T08:33:01.093Z,11.26
2022-10-13T08:35:34.772Z,11.29
2022-10-13T08:38:07.575Z,11.32
2022-10-13T08:40:40.338Z,11.40
2022-10-13T08:43:18.469Z,11.54
2022-10-13T08:45:52.334Z,11.65
2022-10-13T08:48:27.726Z,11.68
2022-10-13T08:51:02.162Z,11.77
2022-10-13T08:53:38.203Z,11.91
2022-10-13T08:56:16.451Z,12.01
2022-10-13T08:58:52.981Z,12.07
2022-10-13T09:01:29.032Z,12.13
2022-10-13T09:04:14.995Z,12.21
2022-10-13T09:06:55.895Z,12.35
2022-10-13T09:09:27.927Z,12.44
2022-10-13T09:12:01.618Z,12.53
2022-10-13T09:14:38.323Z,12.64
2022-10-13T09:17:18.871Z,12.74
2022-10-13T09:20:01.573Z,12.89
2022-10-13T09:22:38.380Z,13.03
2022-10-13T09:25:26.790Z,13.04
2022-10-13T09:28:01.778Z,13.17
2022-10-13T09:30:38.301Z,13.33
2022-10-13T09:33:27.677Z,13.43
2022-10-13T09:36:16.959Z,13.63
2022-10-13T09:39:09.660Z,13.82
2022-10-13T09:41:44.118Z,14.00
2022-10-13T09:44:18.079Z,14.16
2022-10-13T09:46:53.922Z,14.30
2022-10-13T09:49:35.676Z,14.50
2022-10-13T09:52:19.954Z,14.69
2022-10-13T09:54:54.029Z,14.91
2022-10-13T09:57:32.739Z,14.95
2022-10-13T10:00:13.965Z,15.05
2022-10-13T10:02:55.057Z,15.15
2022-10-13T10:05:39.251Z,15.27
2022-10-13T10:08:20.559Z,15.37
2022-10-13T10:10:55.112Z,15.53
2022-10-13T10:13:28.061Z,15.75
2022-10-13T10:16:08.755Z,15.76
2022-10-13T10:18:48.035Z,15.93
2022-10-13T10:21:32.441Z,16.02
2022-10-13T10:24:18.575Z,16.27
2022-10-13T10:26:56.437Z,16.47
2022-10-13T10:29:38.517Z,16.60
2022-10-13T10:32:34.454Z,16.75
2022-10-13T10:35:17.214Z,16.93
2022-10-13T10:38:02.831Z,16.93
2022-10-13T10:40:41.621Z,17.03
2022-10-13T10:43:27.729Z,17.06
2022-10-13T10:46:01.370Z,17.07
2022-10-13T10:48:39.868Z,17.31
2022-10-13T10:51:13.262Z,17.44
2022-10-13T10:53:55.781Z,17.42
2022-10-13T10:56:33.514Z,17.56
2022-10-13T10:59:26.790Z,17.65
2022-10-13T11:02:12.064Z,17.72
2022-10-13T11:04:45.589Z,17.64
2022-10-13T11:07:57.927Z,17.87
2022-10-13T11:10:32.107Z,18.20
2022-10-13T11:13:25.558Z,18.28
2022-10-13T11:16:21.133Z,18.10
2022-10-13T11:19:07.948Z,18.02
2022-10-13T11:22:19.095Z,18.27
2022-10-13T11:24:57.225Z,18.47
2022-10-13T11:27:40.707Z,18.50
2022-10-13T11:30:42.637Z,18.41
2022-10-13T11:33:53.985Z,18.56
2022-10-13T11:36:36.296Z,18.73
2022-10-13T11:39:36.925Z,18.88
2022-10-13T11:42:22.343Z,18.89
2022-10-13T11:44:58.332Z,19.00
2022-10-13T11:48:05.004Z,19.12
2022-10-13T11:50:44.214Z,19.20
2022-10-13T11:53:20.412Z,19.01
2022-10-13T11:55:55.458Z,18.85
2022-10-13T11:58:30.156Z,18.88
2022-10-13T12:01:04.417Z,19.00
2022-10-13T12:03:38.053Z,19.24
2022-10-13T12:06:33.198Z,19.30
2022-10-13T12:09:16.395Z,19.24
2022-10-13T12:11:57.043Z,19.26
2022-10-13T12:17:29.285Z,19.38
2022-10-13T12:20:21.323Z,19.42
2022-10-13T12:22:54.525Z,19.39
2022-10-13T12:25:27.937Z,19.57
2022-10-13T12:28:03.256Z,19.75
2022-10-13T12:30:37.032Z,19.79
2022-10-13T12:33:24.206Z,19.73
2022-10-13T12:35:56.257Z,19.69
2022-10-13T12:38:29.071Z,19.81
2022-10-13T12:41:01.649Z,19.82
2022-10-13T12:43:34.454Z,19.57
2022-10-13T12:46:09.327Z,19.54
2022-10-13T12:48:41.062Z,19.59
2022-10-13T12:51:23.658Z,19.56
2022-10-13T12:53:55.695Z,19.37
2022-10-13T12:56:32.222Z,19.23
2022-10-13T12:59:04.695Z,19.03
2022-10-13T13:01:37.982Z,18.93
2022-10-13T13:04:28.610Z,18.82
2022-10-13T13:07:02.360Z,18.68
2022-10-13T13:09:38.863Z,18.66
2022-10-13T13:12:27.415Z,18.53
2022-10-13T13:15:00.718Z,18.49
2022-10-13T13:20:29.794Z,18.40
2022-10-13T13:23:02.099Z,18.35
2022-10-13T13:25:33.764Z,18.17
2022-10-13T13:28:14.027Z,18.16
2022-10-13T13:30:46.418Z,18.17
2022-10-13T13:33:18.059Z,18.22
2022-10-13T13:35:51.166Z,18.15
2022-10-13T13:38:23.253Z,18.13
2022-10-13T13:40:54.805Z,18.14
2022-10-13T13:43:26.601Z,18.15
2022-10-13T13:45:58.529Z,17.96
2022-10-13T13:48:30.320Z,17.92
2022-10-13T13:51:03.250Z,18.00
2022-10-13T13:53:34.893Z,18.01
2022-10-13T13:56:12.602Z,18.13
2022-10-13T13:58:44.669Z,18.17
2022-10-13T14:01:17.311Z,18.24
2022-10-13T14:03:49.037Z,18.25
2022-10-13T14:06:22.998Z,18.27
2022-10-13T14:08:54.754Z,18.40
2022-10-13T14:11:26.478Z,18.44
2022-10-13T14:14:01.884Z,18.51
2022-10-13T14:16:33.840Z,18.55
2022-10-13T14:19:08.708Z,18.54
2022-10-13T14:21:40.416Z,18.48
2022-10-13T14:24:15.145Z,18.59
2022-10-13T14:26:46.967Z,18.51
2022-10-13T14:29:19.113Z,18.50
2022-10-13T14:31:51.767Z,18.37
2022-10-13T14:34:22.908Z,18.25
2022-10-13T14:36:56.056Z,18.12
2022-10-13T14:39:28.616Z,18.02
2022-10-13T14:42:00.274Z,17.89
2022-10-13T14:44:32.049Z,17.89
2022-10-13T14:47:03.734Z,17.80
2022-10-13T14:49:35.606Z,17.74
2022-10-13T14:52:07.691Z,17.65
2022-10-13T14:54:43.890Z,17.59
2022-10-13T14:57:16.532Z,17.50
2022-10-13T14:59:48.549Z,17.43
2022-10-13T15:02:20.214Z,17.43
2022-10-13T15:04:58.965Z,17.47
2022-10-13T15:07:30.709Z,17.39
2022-10-13T15:10:06.331Z,17.33
2022-10-13T15:12:39.458Z,17.26
2022-10-13T15:15:12.406Z,17.26
2022-10-13T15:17:44.011Z,17.26
2022-10-13T15:20:15.826Z,17.23
2022-10-13T15:22:47.871Z,17.12
2022-10-13T15:25:18.498Z,17.03
2022-10-13T15:27:50.119Z,16.93
2022-10-13T15:30:21.941Z,16.83
2022-10-13T15:32:53.850Z,16.82
2022-10-13T15:35:31.262Z,16.80
2022-10-13T15:38:03.852Z,16.79
2022-10-13T15:40:39.501Z,16.72
2022-10-13T15:43:11.338Z,16.71
2022-10-13T15:45:43.438Z,16.66
2022-10-13T15:48:15.956Z,16.63
2022-10-13T15:50:47.699Z,16.57
2022-10-13T15:53:19.708Z,16.55
2022-10-13T15:55:51.525Z,16.52
2022-10-13T15:58:23.015Z,16.42
2022-10-13T16:00:54.705Z,16.39
2022-10-13T16:03:29.730Z,16.35
2022-10-13T16:06:06.258Z,16.22
2022-10-13T16:08:39.651Z,16.13
2022-10-13T16:11:12.180Z,16.02
2022-10-13T16:13:46.588Z,16.02
2022-10-13T16:16:19.286Z,15.97
2022-10-13T16:18:51.800Z,15.92
2022-10-13T16:21:25.996Z,15.90
2022-10-13T16:23:59.893Z,15.81
2022-10-13T16:26:31.821Z,15.75
2022-10-13T16:29:03.737Z,15.68
2022-10-13T16:31:35.383Z,15.65
2022-10-13T16:34:08.032Z,15.61
2022-10-13T16:36:39.680Z,15.60
2022-10-13T16:39:11.305Z,15.58
2022-10-13T16:41:45.033Z,15.55
2022-10-13T16:44:16.939Z,15.49
2022-10-13T16:46:49.748Z,15.45
2022-10-13T16:49:20.512Z,15.33
2022-10-13T16:51:52.420Z,15.22
2022-10-13T16:54:24.137Z,15.23
2022-10-13T16:56:55.756Z,15.20
2022-10-13T16:59:28.923Z,15.17
2022-10-13T17:02:01.087Z,15.16
2022-10-13T17:04:32.849Z,15.14
2022-10-13T17:07:05.290Z,15.08
2022-10-13T17:09:37.297Z,15.11
2022-10-13T17:12:09.694Z,15.14
2022-10-13T17:14:41.715Z,15.13
2022-10-13T17:17:13.406Z,15.11
2022-10-13T17:19:45.194Z,15.00
2022-10-13T17:22:17.018Z,15.00
2022-10-13T17:24:49.288Z,14.92
2022-10-13T17:27:21.375Z,14.91
2022-10-13T17:29:55.148Z,14.85
2022-10-13T17:32:27.326Z,14.81
2022-10-13T17:34:58.970Z,14.80
2022-10-13T17:37:33.501Z,14.80
2022-10-13T17:40:05.878Z,14.76
2022-10-13T17:42:38.546Z,14.79
2022-10-13T17:45:09.907Z,14.76
2022-10-13T17:47:47.896Z,14.73
2022-10-13T17:50:20.207Z,14.69
2022-10-13T17:52:54.191Z,14.70
2022-10-13T17:55:26.386Z,14.64
2022-10-13T17:57:57.915Z,14.67
2022-10-13T18:00:29.551Z,14.69
2022-10-13T18:03:01.208Z,14.70
2022-10-13T18:05:34.850Z,14.68
2022-10-13T18:08:07.286Z,14.61
2022-10-13T18:11:03.607Z,14.59
2022-10-13T18:13:32.215Z,14.54
2022-10-13T18:16:09.853Z,14.50
2022-10-13T18:18:41.927Z,14.49
2022-10-13T18:21:15.559Z,14.41
2022-10-13T18:23:49.999Z,14.40
2022-10-13T18:26:23.951Z,14.43
2022-10-13T18:28:58.252Z,14.41
2022-10-13T18:31:32.124Z,14.28
2022-10-13T18:34:06.234Z,14.34
2022-10-13T18:36:39.760Z,14.34
2022-10-13T18:39:15.936Z,14.34
2022-10-13T18:41:51.111Z,14.39
2022-10-13T18:44:24.947Z,14.37
2022-10-13T18:46:57.102Z,14.42
2022-10-13T18:49:33.944Z,14.44
2022-10-13T18:52:06.117Z,14.44
2022-10-13T18:54:41.330Z,14.46
2022-10-13T18:57:16.187Z,14.35
2022-10-13T18:59:49.208Z,14.34
2022-10-13T19:02:21.450Z,14.31
2022-10-13T19:04:53.202Z,14.35
2022-10-13T19:07:25.312Z,14.34
2022-10-13T19:09:57.702Z,14.32
2022-10-13T19:12:29.457Z,14.32
2022-10-13T19:15:01.490Z,14.30
2022-10-13T19:17:33.704Z,14.21
2022-10-13T19:20:06.629Z,14.14
2022-10-13T19:22:38.955Z,14.08
2022-10-13T19:25:12.507Z,14.03
2022-10-13T19:27:44.519Z,13.97
2022-10-13T19:30:17.631Z,13.87
2022-10-13T19:32:51.013Z,13.86
2022-10-13T19:35:22.957Z,13.87
2022-10-13T19:37:55.400Z,13.78
2022-10-13T19:40:29.911Z,13.71
2022-10-13T19:43:01.871Z,13.74
2022-10-13T19:45:38.418Z,13.72
2022-10-13T19:48:13.093Z,13.71
2022-10-13T19:50:47.169Z,13.65
2022-10-13T19:53:21.368Z,13.60
2022-10-13T19:55:51.601Z,13.68
2022-10-13T19:58:23.734Z,13.67
2022-10-13T20:00:56.192Z,13.73
2022-10-13T20:03:28.102Z,13.70
2022-10-13T20:06:00.032Z,13.66
2022-10-13T20:08:32.085Z,13.69
2022-10-13T20:11:08.448Z,13.67
2022-10-13T20:13:40.358Z,13.67
2022-10-13T20:16:14.499Z,13.65
2022-10-13T20:18:46.708Z,13.58
2022-10-13T20:21:19.426Z,13.58
2022-10-13T20:23:49.545Z,13.57
2022-10-13T20:26:21.942Z,13.52
2022-10-13T20:28:58.385Z,13.49
2022-10-13T20:31:30.489Z,13.48
2022-10-13T20:34:02.243Z,13.39
2022-10-13T20:36:38.864Z,13.38
2022-10-13T20:39:11.223Z,13.26
2022-10-13T20:41:43.788Z,13.26
2022-10-13T20:44:16.249Z,13.17
2022-10-13T20:46:48.116Z,13.17
2022-10-13T20:49:19.796Z,13.19
2022-10-13T20:51:51.462Z,13.19
2022-10-13T20:54:23.656Z,13.18
2022-10-13T20:56:57.858Z,13.23
2022-10-13T20:59:29.496Z,13.15
2022-10-13T21:02:01.149Z,13.13
2022-10-13T21:04:33.252Z,13.17
2022-10-13T21:07:05.183Z,13.16
2022-10-13T21:09:38.120Z,13.15
2022-10-13T21:12:10.089Z,13.16
2022-10-13T21:14:41.667Z,13.18
2022-10-13T21:17:13.219Z,13.12
2022-10-13T21:19:45.689Z,13.00
2022-10-13T21:22:17.963Z,12.94
2022-10-13T21:24:50.373Z,12.90
2022-10-13T21:27:22.744Z,12.90
2022-10-13T21:29:54.586Z,12.89
2022-10-13T21:32:26.463Z,12.88
2022-10-13T21:34:58.088Z,12.90
2022-10-13T21:37:29.988Z,12.85
2022-10-13T21:40:04.550Z,12.85
2022-10-13T21:42:36.902Z,12.88
2022-10-13T21:45:10.636Z,12.94
2022-10-13T21:47:42.373Z,12.91
2022-10-13T21:50:14.286Z,12.78
2022-10-13T21:52:49.790Z,12.81
2022-10-13T21:55:21.534Z,12.71
2022-10-13T21:57:56.610Z,12.67
2022-10-13T22:00:26.699Z,12.68
2022-10-13T22:02:59.419Z,12.64
2022-10-13T22:05:31.418Z,12.68
2022-10-13T22:08:03.219Z,12.70
2022-10-13T22:10:35.129Z,12.75
2022-10-13T22:13:07.162Z,12.70
2022-10-13T22:15:38.793Z,12.65
2022-10-13T22:18:10.725Z,12.69
2022-10-13T22:20:42.296Z,12.70
2022-10-13T22:23:13.818Z,12.61
2022-10-13T22:25:49.210Z,12.64
2022-10-13T22:28:21.583Z,12.60
2022-10-13T22:30:53.844Z,12.63
2022-10-13T22:33:25.432Z,12.69
2022-10-13T22:35:59.936Z,12.70
2022-10-13T22:38:31.778Z,12.64
2022-10-13T22:41:08.251Z,12.67
2022-10-13T22:43:39.963Z,12.61
2022-10-13T22:46:19.716Z,12.65
2022-10-13T22:48:51.751Z,12.59
2022-10-13T22:51:25.708Z,12.60
2022-10-13T22:53:58.484Z,12.60
2022-10-13T22:56:29.657Z,12.60
2022-10-13T22:59:03.403Z,12.58
2022-10-13T23:01:35.737Z,12.54
2022-10-13T23:04:08.069Z,12.45
2022-10-13T23:06:39.657Z,12.43
2022-10-13T23:09:14.616Z,12.39
2022-10-13T23:11:46.378Z,12.30
2022-10-13T23:14:24.371Z,12.26
2022-10-13T23:16:56.284Z,12.26
2022-10-13T23:19:29.016Z,12.14
2022-10-13T23:22:01.014Z,12.15
2022-10-13T23:24:33.362Z,12.14
2022-10-13T23:27:05.303Z,12.16
2022-10-13T23:29:37.037Z,12.10
2022-10-13T23:32:10.039Z,12.08
2022-10-13T23:34:42.321Z,12.03
2022-10-13T23:37:15.058Z,11.94
2022-10-13T23:39:46.825Z,11.92
2022-10-13T23:42:19.834Z,11.85
2022-10-13T23:44:51.787Z,11.84
2022-10-13T23:47:23.818Z,11.89
2022-10-13T23:49:55.850Z,11.90
2022-10-13T23:52:27.810Z,11.92
2022-10-13T23:54:59.314Z,11.91
2022-10-13T23:57:33.355Z,11.89
